Jijel, Algeria
Current Conditions -  °F | °C
As of 4:00 PM on Friday 28 Nov 2014 (Local Time) from DAAV Reporting Station
Scattered Clouds Scattered Clouds  
Wind Chill: 75°   Ceiling: Unl
Heat Index: 75°   Visibility: 6mi
Dew Point: 45°   Wind: 9mph
Humidity: 34%   Direction: 180°S
Pressure: 29.44"   Gusts: NA
Location:  36.82°N, 5.77°E
Report Text: DAAV 281500Z 18008KT 9999 FEW026 SCT090 24/07 Q0997
Loading
Personal Weather Stations






























Interactive Weather Map New forecast layout! Learn more

10-Day Weather Forecast

Advertisements
Track Severe Weather on mobile